EGJJEGKK

Guest
Details From EGJJ - Jersey
To EGKK - London Gatwick
Flight Number -
Tags decoded
Created
Modified
Stats Distance 140 nm / 259 km
Max Altitude 0 ft / 0 m
Waypoints 2
Social Downloads 3
Likes 0
Share VATSIM

Download

Looking for another format? Having issues loading an existing format? Contact us
Advertisement - Login to hide

Notes

Requested: EGJJ EGKK

Route

EGJJ EGKK

ID Type Via Altitude Latitude Longitude Leg Dist Tot Dist Heading (true) Name
O EGJJ APT - 0 ft / 0 m 49.20796˚ -2.19529˚ - 0 nm - Jersey
O EGKK APT - 0 ft / 0 m 51.14875˚ -0.19247˚ 139 nm 139 nm 33° / 34° London Gatwick

Altitude Profile

Advertisement - Login to hide

EGJJ

Details ICAO EGJJ (JER)
Name Jersey
Region United Kingdom
Timezone Europe/Jersey (UTC+0.0)
Stats Elevation 277 ft / 84 m (AMSL)
Location 49.207964° -2.195294°
Runways 1
Magnetic Variation 0.902° W

METAR

EGJJ 170050Z AUTO 34010KT 310V020 9999 FEW027/// 08/05 Q1024

Decode

TAF

Not found

Departure Runways

ID Width Length Bearing (true) Bearing (mag) Surface Threshold Offset Overrun Length
09 151 ft / 46 m 5,593 ft / 1,705 m 82.73° 83.63° Asphalt 200 ft / 61 m 0 ft / 0 m
27 151 ft / 46 m 5,593 ft / 1,705 m 262.74° 263.64° Asphalt 302 ft / 92 m 0 ft / 0 m

EGKK

Details ICAO EGKK (LGW)
Name London Gatwick
Region United Kingdom
Timezone Europe/London (UTC+0.0)
Stats Elevation 196 ft / 60 m (AMSL)
Location 51.148753° -0.192472°
Runways 2
Magnetic Variation 0.431° W

METAR

EGKK 170050Z 32004KT 9999 FEW010 02/01 Q1023

Decode

TAF

TAF EGKK 162308Z 1700/1806 31006KT 9999 BKN025 BECMG 1700/1703 7000 TEMPO 1700/1703 3000 BR BKN002 BECMG 1703/1706 3000 BR MIFG PROB40 1703/1710 0300 FG FZFG VV/// BECMG 1709/1712 24010KT 9999 NSW TEMPO 1710/1716 7000 -RADZ BKN009 PROB40 TEMPO 1714/1723 4000 RA BKN004 BECMG 1716/1719 7000 -RADZ BKN010 BECMG 1722/1801 33008KT 9999 NSW SCT030

Decode

Destination Runways

ID Width Length Bearing (true) Bearing (mag) Surface Threshold Offset Overrun Length
08L 148 ft / 45 m 8,377 ft / 2,553 m 77.69° 78.12° Asphalt 1,053 ft / 321 m 0 ft / 0 m
08R 148 ft / 45 m 10,341 ft / 3,152 m 77.59° 78.02° Asphalt 1,289 ft / 393 m 0 ft / 0 m
26L 148 ft / 45 m 10,341 ft / 3,152 m 257.63° 258.06° Asphalt 879 ft / 268 m 600 ft / 183 m
26R 148 ft / 45 m 8,377 ft / 2,553 m 257.71° 258.14° Asphalt 1,365 ft / 416 m 0 ft / 0 m

Approach Navaids

Runway Type Ident Frequency Range Bearing (true) Bearing (mag) Slope Elevation
08R Localiser IGG 110.90 MHz 18 nm / 33 km 77.66° 78.09° - 196 ft / 60 m (AMSL)
08R Glidescope IGG 110.90 MHz 10 nm / 19 km 77.61° 78.04° 3.00° 196 ft / 60 m (AMSL)
08R DME IGG 110.90 MHz 18 nm / 33 km - - - 274 ft / 84 m (AMSL)
26L Localiser IWW 110.90 MHz 18 nm / 33 km 257.42° 257.85° - 196 ft / 60 m (AMSL)
26L Glidescope IWW 110.90 MHz 10 nm / 19 km 257.61° 258.04° 3.00° 196 ft / 60 m (AMSL)
26L DME IWW 110.90 MHz 18 nm / 33 km - - - 274 ft / 84 m (AMSL)

Popular Alternatives